createdAt,value
2022-12-17T00:02:41.453Z,7.03
2022-12-17T00:05:27.969Z,6.20
2022-12-17T00:08:17.879Z,6.90
2022-12-17T00:11:14.486Z,7.70
2022-12-17T00:14:01.366Z,7.70
2022-12-17T00:16:48.131Z,7.17
2022-12-17T00:19:34.969Z,7.17
2022-12-17T00:22:21.896Z,7.30
2022-12-17T00:25:08.816Z,6.90
2022-12-17T00:27:57.934Z,7.80
2022-12-17T00:30:44.687Z,6.10
2022-12-17T00:33:31.502Z,7.57
2022-12-17T00:36:18.370Z,8.20
2022-12-17T00:39:05.168Z,6.30
2022-12-17T00:41:52.063Z,7.23
2022-12-17T00:44:45.440Z,7.33
2022-12-17T00:47:32.278Z,6.73
2022-12-17T00:50:19.120Z,7.50
2022-12-17T00:53:05.721Z,7.80
2022-12-17T00:55:52.315Z,6.60
2022-12-17T00:58:39.380Z,7.50
2022-12-17T01:04:39.105Z,6.90
2022-12-17T01:07:25.971Z,7.50
2022-12-17T01:10:12.737Z,7.47
2022-12-17T01:12:59.807Z,6.63
2022-12-17T01:15:45.550Z,7.50
2022-12-17T01:18:37.674Z,7.30
2022-12-17T01:21:24.596Z,7.77
2022-12-17T01:24:11.623Z,6.50
2022-12-17T01:26:58.465Z,6.33
2022-12-17T01:29:45.371Z,6.63
2022-12-17T01:32:32.391Z,6.63
2022-12-17T01:35:22.830Z,7.93
2022-12-17T01:38:10.264Z,6.93
2022-12-17T01:40:57.166Z,6.43
2022-12-17T01:43:51.468Z,7.43
2022-12-17T01:46:38.314Z,7.20
2022-12-17T01:49:25.668Z,6.80
2022-12-17T01:52:25.210Z,6.70
2022-12-17T01:55:12.207Z,6.90
2022-12-17T01:57:59.343Z,6.53
2022-12-17T02:00:51.738Z,6.50
2022-12-17T02:03:39.031Z,6.77
2022-12-17T02:06:30.872Z,7.77
2022-12-17T02:09:23.515Z,6.87
2022-12-17T02:12:14.526Z,6.70
2022-12-17T02:15:04.382Z,7.10
2022-12-17T02:17:53.500Z,6.30
2022-12-17T02:20:46.293Z,9.40
2022-12-17T02:23:38.663Z,6.67
2022-12-17T02:26:33.022Z,6.50
2022-12-17T02:29:38.027Z,6.40
2022-12-17T02:32:25.949Z,6.90
2022-12-17T02:35:12.729Z,5.90
2022-12-17T02:38:05.345Z,6.40
2022-12-17T02:40:53.051Z,6.37
2022-12-17T02:43:44.980Z,6.20
2022-12-17T02:46:33.855Z,5.90
2022-12-17T02:49:20.617Z,6.10
2022-12-17T02:52:08.281Z,7.20
2022-12-17T02:54:55.057Z,6.33
2022-12-17T02:57:44.110Z,6.27
2022-12-17T03:00:33.425Z,6.80
2022-12-17T03:03:22.030Z,6.90
2022-12-17T03:06:08.842Z,6.43
2022-12-17T03:08:55.658Z,6.07
2022-12-17T03:11:42.522Z,6.50
2022-12-17T03:14:29.506Z,5.90
2022-12-17T03:17:16.401Z,7.20
2022-12-17T03:20:04.670Z,6.30
2022-12-17T03:22:51.482Z,7.30
2022-12-17T03:25:38.668Z,6.30
2022-12-17T03:28:26.033Z,6.50
2022-12-17T03:31:12.921Z,6.17
2022-12-17T03:33:59.674Z,7.10
2022-12-17T03:36:47.872Z,5.80
2022-12-17T03:39:34.655Z,6.63
2022-12-17T03:42:21.168Z,5.90
2022-12-17T03:45:07.938Z,5.90
2022-12-17T03:47:54.836Z,6.37
2022-12-17T03:50:37.874Z,6.20
2022-12-17T03:53:26.559Z,5.67
2022-12-17T03:56:13.308Z,7.10
2022-12-17T03:58:59.942Z,8.07
2022-12-17T04:01:47.035Z,7.70
2022-12-17T04:04:34.236Z,7.43
2022-12-17T04:07:20.721Z,7.63
2022-12-17T04:10:08.923Z,6.80
2022-12-17T04:12:55.876Z,6.87
2022-12-17T04:15:42.612Z,6.80
2022-12-17T04:18:29.597Z,6.30
2022-12-17T04:21:16.235Z,6.00
2022-12-17T04:24:02.933Z,6.57
2022-12-17T04:26:51.366Z,6.40
2022-12-17T04:29:39.021Z,6.67
2022-12-17T04:32:27.529Z,6.23
2022-12-17T04:35:15.903Z,6.60
2022-12-17T04:38:02.905Z,6.00
2022-12-17T04:40:50.063Z,6.20
2022-12-17T04:43:39.058Z,6.40
2022-12-17T04:46:26.006Z,6.13
2022-12-17T04:49:18.373Z,6.13
2022-12-17T04:52:05.096Z,6.00
2022-12-17T04:54:52.284Z,6.57
2022-12-17T04:57:39.017Z,6.40
2022-12-17T05:00:27.864Z,5.57
2022-12-17T05:03:14.611Z,6.63
2022-12-17T05:06:03.138Z,6.57
2022-12-17T05:08:49.780Z,6.33
2022-12-17T05:11:51.344Z,6.47
2022-12-17T05:14:38.099Z,6.57
2022-12-17T05:17:25.976Z,5.80
2022-12-17T05:20:12.632Z,5.80
2022-12-17T05:22:59.289Z,5.37
2022-12-17T05:25:45.955Z,5.43
2022-12-17T05:28:32.741Z,5.70
2022-12-17T05:31:19.632Z,5.23
2022-12-17T05:34:08.003Z,5.70
2022-12-17T05:36:54.668Z,5.20
2022-12-17T05:39:41.409Z,5.43
2022-12-17T05:42:28.175Z,5.90
2022-12-17T05:45:14.999Z,5.30
2022-12-17T05:48:01.871Z,6.00
2022-12-17T05:50:50.399Z,5.87
2022-12-17T05:53:37.306Z,5.77
2022-12-17T05:56:24.397Z,6.37
2022-12-17T05:59:10.415Z,5.50
2022-12-17T06:01:57.181Z,6.60
2022-12-17T06:04:43.761Z,5.97
2022-12-17T06:07:32.418Z,6.20
2022-12-17T06:10:19.169Z,6.43
2022-12-17T06:13:14.064Z,7.10
2022-12-17T06:16:00.805Z,7.20
2022-12-17T06:18:47.577Z,6.73
2022-12-17T06:21:30.449Z,5.97
2022-12-17T06:24:18.792Z,5.67
2022-12-17T06:27:05.582Z,8.80
2022-12-17T06:29:52.211Z,5.80
2022-12-17T06:32:39.023Z,5.70
2022-12-17T06:35:26.461Z,6.70
2022-12-17T06:38:17.814Z,5.87
2022-12-17T06:41:06.150Z,6.57
2022-12-17T06:43:52.890Z,6.43
2022-12-17T06:46:39.482Z,5.70
2022-12-17T06:49:26.206Z,5.63
2022-12-17T06:52:12.727Z,5.50
2022-12-17T06:54:59.440Z,6.60
2022-12-17T06:57:50.525Z,5.57
2022-12-17T07:00:37.767Z,5.33
2022-12-17T07:03:24.326Z,6.17
2022-12-17T07:06:10.926Z,5.13
2022-12-17T07:08:57.835Z,5.60
2022-12-17T07:11:44.570Z,5.73
2022-12-17T07:14:33.040Z,6.03
2022-12-17T07:17:19.958Z,6.30
2022-12-17T07:20:08.964Z,6.10
2022-12-17T07:22:55.544Z,5.90
2022-12-17T07:25:45.992Z,6.33
2022-12-17T07:28:33.433Z,5.77
2022-12-17T07:31:21.921Z,5.67
2022-12-17T07:34:08.388Z,6.20
2022-12-17T07:36:55.397Z,6.73
2022-12-17T07:39:42.348Z,8.43
2022-12-17T07:42:28.945Z,6.40
2022-12-17T07:45:15.764Z,5.90
2022-12-17T07:48:10.735Z,5.60
2022-12-17T07:50:57.766Z,6.33
2022-12-17T07:53:44.475Z,5.57
2022-12-17T07:56:31.296Z,5.90
2022-12-17T07:59:18.499Z,5.83
2022-12-17T08:02:05.522Z,7.20
2022-12-17T08:04:54.065Z,7.30
2022-12-17T08:07:40.450Z,5.47
2022-12-17T08:10:27.945Z,37.13
2022-12-17T08:13:15.246Z,6.17
2022-12-17T08:16:10.562Z,6.07
2022-12-17T08:18:57.060Z,5.93
2022-12-17T08:21:45.449Z,5.70
2022-12-17T08:24:32.408Z,5.30
2022-12-17T08:27:19.302Z,6.60
2022-12-17T08:30:05.979Z,5.47
2022-12-17T08:32:52.649Z,5.90
2022-12-17T08:35:39.668Z,6.10
2022-12-17T08:38:27.953Z,5.73
2022-12-17T08:41:15.645Z,6.37
2022-12-17T08:44:02.654Z,6.30
2022-12-17T08:46:49.359Z,7.00
2022-12-17T08:49:36.318Z,7.00
2022-12-17T08:52:23.150Z,6.40
2022-12-17T08:55:11.340Z,6.23
2022-12-17T08:57:57.834Z,5.87
2022-12-17T09:00:44.837Z,5.87
2022-12-17T09:03:31.698Z,7.90
2022-12-17T09:06:18.480Z,7.50
2022-12-17T09:09:05.721Z,7.37
2022-12-17T09:11:54.173Z,7.23
2022-12-17T09:14:40.953Z,7.90
2022-12-17T09:17:27.792Z,7.47
2022-12-17T09:20:14.633Z,6.20
2022-12-17T09:23:01.531Z,5.97
2022-12-17T09:25:48.441Z,6.33
2022-12-17T09:28:36.736Z,6.83
2022-12-17T09:31:37.459Z,6.00
2022-12-17T09:34:24.296Z,6.30
2022-12-17T09:37:11.001Z,5.80
2022-12-17T09:39:57.883Z,6.20
2022-12-17T09:42:51.092Z,5.53
2022-12-17T09:45:46.182Z,5.30
2022-12-17T09:48:38.610Z,5.30
2022-12-17T09:51:25.626Z,5.57
2022-12-17T09:54:12.743Z,5.17
2022-12-17T09:57:00.506Z,4.90
2022-12-17T09:59:48.720Z,7.30
2022-12-17T10:02:37.330Z,5.40
2022-12-17T10:05:29.417Z,6.73
2022-12-17T10:08:16.412Z,5.90
2022-12-17T10:11:05.555Z,5.00
2022-12-17T10:13:52.371Z,6.30
2022-12-17T10:16:45.641Z,5.70
2022-12-17T10:19:33.917Z,6.10
2022-12-17T10:22:28.798Z,5.47
2022-12-17T10:25:15.714Z,7.77
2022-12-17T10:28:02.389Z,5.50
2022-12-17T10:30:59.049Z,5.30
2022-12-17T10:33:45.555Z,6.70
2022-12-17T10:36:40.237Z,5.67
2022-12-17T10:39:34.935Z,5.53
2022-12-17T10:42:24.493Z,7.27
2022-12-17T10:45:11.340Z,6.00
2022-12-17T10:48:03.397Z,5.17
2022-12-17T10:50:51.643Z,6.10
2022-12-17T10:53:40.305Z,5.67
2022-12-17T10:56:39.113Z,5.97
2022-12-17T10:59:31.069Z,6.20
2022-12-17T11:02:18.248Z,6.00
2022-12-17T11:05:11.022Z,5.47
2022-12-17T11:08:01.922Z,5.23
2022-12-17T11:10:49.770Z,5.40
2022-12-17T11:13:42.416Z,5.90
2022-12-17T11:16:49.794Z,6.13
2022-12-17T11:19:47.322Z,6.30
2022-12-17T11:22:40.347Z,6.57
2022-12-17T11:25:32.851Z,5.43
2022-12-17T11:28:23.742Z,5.87
2022-12-17T11:31:14.298Z,7.83
2022-12-17T11:34:05.939Z,5.63
2022-12-17T11:36:56.867Z,6.27
2022-12-17T11:39:46.935Z,7.23
2022-12-17T11:42:36.183Z,8.00
2022-12-17T11:45:26.713Z,7.30
2022-12-17T11:48:17.536Z,6.00
2022-12-17T11:51:06.017Z,9.20
2022-12-17T11:54:03.040Z,6.67
2022-12-17T11:56:52.217Z,7.57
2022-12-17T11:59:49.356Z,7.27
2022-12-17T12:02:49.334Z,6.20
2022-12-17T12:05:41.424Z,5.30
2022-12-17T12:08:35.823Z,6.67
2022-12-17T12:11:31.376Z,5.73
2022-12-17T12:14:21.704Z,5.53
2022-12-17T12:17:15.622Z,5.63
2022-12-17T12:20:05.905Z,5.93
2022-12-17T12:22:58.799Z,5.90
2022-12-17T12:25:52.156Z,7.10
2022-12-17T12:28:44.552Z,5.80
2022-12-17T12:31:37.090Z,7.20
2022-12-17T12:34:25.558Z,6.80
2022-12-17T12:37:12.668Z,5.70
2022-12-17T12:40:06.032Z,7.07
2022-12-17T12:42:56.750Z,6.00
2022-12-17T12:45:51.374Z,6.80
2022-12-17T12:48:47.781Z,6.30
2022-12-17T12:51:36.705Z,5.93
2022-12-17T12:54:40.274Z,8.37
2022-12-17T12:57:41.510Z,7.97
2022-12-17T13:00:42.402Z,8.27
2022-12-17T13:03:39.625Z,7.10
2022-12-17T13:06:09.719Z,6.30
2022-12-17T13:08:39.565Z,6.47
2022-12-17T13:11:14.715Z,6.23
2022-12-17T13:13:56.291Z,7.90
2022-12-17T13:16:33.250Z,8.50
2022-12-17T13:19:04.961Z,9.60
2022-12-17T13:21:34.487Z,8.20
2022-12-17T13:24:12.063Z,7.23
2022-12-17T13:26:47.533Z,6.33
2022-12-17T13:29:23.316Z,8.73
2022-12-17T13:32:17.832Z,8.43
2022-12-17T13:34:54.967Z,9.07
2022-12-17T13:37:30.611Z,6.17
2022-12-17T13:40:05.323Z,7.13
2022-12-17T13:42:36.837Z,8.53
2022-12-17T13:45:06.735Z,8.80
2022-12-17T13:47:38.572Z,7.37
2022-12-17T13:50:37.263Z,6.47
2022-12-17T13:53:13.111Z,7.80
2022-12-17T13:55:42.564Z,9.67
2022-12-17T13:58:22.844Z,6.57
2022-12-17T14:00:52.345Z,8.37
2022-12-17T14:03:42.991Z,7.10
2022-12-17T14:06:14.042Z,15.23
2022-12-17T14:08:43.795Z,7.43
2022-12-17T14:11:30.936Z,7.00
2022-12-17T14:14:00.494Z,7.20
2022-12-17T14:16:29.834Z,7.13
2022-12-17T14:19:01.657Z,6.10
2022-12-17T14:21:32.223Z,5.03
2022-12-17T14:24:01.438Z,5.27
2022-12-17T14:26:30.596Z,6.23
2022-12-17T14:28:59.933Z,5.60
2022-12-17T14:31:30.559Z,6.30
2022-12-17T14:34:08.051Z,5.17
2022-12-17T14:36:38.780Z,5.83
2022-12-17T14:39:11.603Z,7.60
2022-12-17T14:41:58.524Z,6.43
2022-12-17T14:44:28.829Z,5.13
2022-12-17T14:47:13.694Z,6.13
2022-12-17T14:49:55.807Z,6.80
2022-12-17T14:52:40.045Z,6.70
2022-12-17T14:55:25.797Z,4.20
2022-12-17T14:57:55.355Z,5.60
2022-12-17T15:00:24.639Z,4.47
2022-12-17T15:02:56.762Z,5.73
2022-12-17T15:05:27.674Z,4.93
2022-12-17T15:07:57.214Z,4.60
2022-12-17T15:10:26.521Z,7.47
2022-12-17T15:12:55.689Z,5.17
2022-12-17T15:15:24.910Z,6.90
2022-12-17T15:17:54.472Z,5.00
2022-12-17T15:20:23.950Z,4.43
2022-12-17T15:22:54.862Z,5.40
2022-12-17T15:25:24.086Z,5.03
2022-12-17T15:27:53.490Z,5.37
2022-12-17T15:30:22.802Z,5.00
2022-12-17T15:32:52.129Z,7.40
2022-12-17T15:35:21.716Z,7.53
2022-12-17T15:37:50.951Z,4.77
2022-12-17T15:40:22.040Z,5.00
2022-12-17T15:43:08.739Z,6.00
2022-12-17T15:45:37.979Z,5.40
2022-12-17T15:48:07.380Z,4.50
2022-12-17T15:50:37.007Z,4.70
2022-12-17T15:53:06.318Z,4.80
2022-12-17T15:55:37.067Z,8.40
2022-12-17T15:58:06.618Z,8.27
2022-12-17T16:00:35.979Z,6.47
2022-12-17T16:03:05.305Z,6.23
2022-12-17T16:05:34.631Z,10.73
2022-12-17T16:08:04.024Z,5.03
2022-12-17T16:10:33.207Z,5.97
2022-12-17T16:13:03.936Z,5.03
2022-12-17T16:15:33.400Z,6.20
2022-12-17T16:18:02.661Z,5.57
2022-12-17T16:20:32.058Z,6.57
2022-12-17T16:23:01.850Z,5.63
2022-12-17T16:25:31.304Z,5.60
2022-12-17T16:28:00.452Z,5.60
2022-12-17T16:30:31.162Z,6.40
2022-12-17T16:33:00.482Z,5.23
2022-12-17T16:35:29.789Z,4.93
2022-12-17T16:37:58.988Z,4.00
2022-12-17T16:40:28.384Z,4.73
2022-12-17T16:42:58.154Z,4.13
2022-12-17T16:45:27.290Z,4.80
2022-12-17T16:47:58.330Z,6.27
2022-12-17T16:50:29.954Z,5.87
2022-12-17T16:52:59.083Z,5.40
2022-12-17T16:55:28.276Z,5.33
2022-12-17T16:57:57.686Z,4.30
2022-12-17T17:00:26.918Z,6.50
2022-12-17T17:02:56.195Z,7.40
2022-12-17T17:05:26.803Z,5.70
2022-12-17T17:07:56.093Z,12.53
2022-12-17T17:10:25.349Z,6.20
2022-12-17T17:12:54.832Z,5.30
2022-12-17T17:15:24.356Z,5.40
2022-12-17T17:18:01.600Z,5.77
2022-12-17T17:20:33.406Z,4.77
2022-12-17T17:23:03.168Z,4.40
2022-12-17T17:25:50.560Z,5.40
2022-12-17T17:28:22.497Z,7.37
2022-12-17T17:30:51.822Z,6.77
2022-12-17T17:33:21.063Z,5.30
2022-12-17T17:35:51.768Z,5.93
2022-12-17T17:38:21.062Z,6.17
2022-12-17T17:40:50.212Z,6.67
2022-12-17T17:43:19.630Z,5.70
2022-12-17T17:45:48.887Z,7.43
2022-12-17T17:48:18.076Z,7.13
2022-12-17T17:50:47.259Z,6.93
2022-12-17T17:53:18.115Z,6.27
2022-12-17T17:55:47.432Z,7.43
2022-12-17T17:58:17.912Z,7.00
2022-12-17T18:00:47.568Z,9.90
2022-12-17T18:03:42.330Z,9.23
2022-12-17T18:06:13.293Z,6.30
2022-12-17T18:08:44.277Z,6.83
2022-12-17T18:11:16.103Z,6.90
2022-12-17T18:13:55.175Z,6.90
2022-12-17T18:16:25.795Z,7.70
2022-12-17T18:18:56.035Z,8.20
2022-12-17T18:21:26.082Z,7.63
2022-12-17T18:24:01.259Z,7.80
2022-12-17T18:26:31.351Z,11.33
2022-12-17T18:29:03.196Z,9.27
2022-12-17T18:31:33.301Z,9.60
2022-12-17T18:34:03.676Z,9.57
2022-12-17T18:36:34.059Z,9.10
2022-12-17T18:39:06.244Z,9.10
2022-12-17T18:41:53.499Z,7.53
2022-12-17T18:44:22.700Z,7.37
2022-12-17T18:46:52.035Z,9.00
2022-12-17T18:49:22.831Z,9.00
2022-12-17T18:51:53.045Z,9.50
2022-12-17T18:54:24.468Z,8.30
2022-12-17T18:57:02.255Z,8.03
2022-12-17T18:59:32.778Z,8.60
2022-12-17T19:02:02.179Z,9.60
2022-12-17T19:04:33.239Z,7.63
2022-12-17T19:07:02.417Z,8.13
2022-12-17T19:09:35.867Z,8.10
2022-12-17T19:12:05.957Z,9.57
2022-12-17T19:14:36.095Z,9.43
2022-12-17T19:17:06.417Z,11.03
2022-12-17T19:19:35.833Z,7.93
2022-12-17T19:22:04.978Z,9.43
2022-12-17T19:24:38.978Z,9.70
2022-12-17T19:27:08.289Z,9.13
2022-12-17T19:29:37.672Z,10.57
2022-12-17T19:32:07.323Z,9.47
2022-12-17T19:34:36.501Z,9.83
2022-12-17T19:37:05.994Z,8.77
2022-12-17T19:39:36.641Z,9.50
2022-12-17T19:42:06.133Z,12.57
2022-12-17T19:44:35.419Z,11.33
2022-12-17T19:47:05.007Z,12.23
2022-12-17T19:49:35.715Z,12.10
2022-12-17T19:52:04.974Z,8.23
2022-12-17T19:54:34.272Z,7.27
2022-12-17T19:57:04.938Z,13.50
2022-12-17T19:59:34.064Z,11.90
2022-12-17T20:02:04.056Z,8.87
2022-12-17T20:04:33.312Z,6.60
2022-12-17T20:07:02.542Z,9.50
2022-12-17T20:09:31.709Z,13.30
2022-12-17T20:12:01.085Z,12.77
2022-12-17T20:14:31.753Z,9.80
2022-12-17T20:17:02.874Z,12.27
2022-12-17T20:19:33.310Z,12.37
2022-12-17T20:22:03.434Z,12.03
2022-12-17T20:24:32.960Z,13.00
2022-12-17T20:27:02.537Z,10.37
2022-12-17T20:29:33.138Z,8.63
2022-12-17T20:32:03.879Z,9.07
2022-12-17T20:34:33.502Z,9.23
2022-12-17T20:37:02.691Z,9.27
2022-12-17T20:39:32.363Z,12.77
2022-12-17T20:42:01.612Z,12.10
2022-12-17T20:44:30.782Z,10.60
2022-12-17T20:47:01.477Z,10.50
2022-12-17T20:49:30.844Z,11.70
2022-12-17T20:51:59.983Z,11.10
2022-12-17T20:54:29.631Z,11.90
2022-12-17T20:56:59.015Z,14.07
2022-12-17T20:59:28.260Z,10.40
2022-12-17T21:01:57.754Z,11.83
2022-12-17T21:04:28.528Z,11.50
2022-12-17T21:06:57.774Z,13.57
2022-12-17T21:09:26.989Z,12.00
2022-12-17T21:11:56.332Z,13.60
2022-12-17T21:14:29.161Z,12.60
2022-12-17T21:17:01.548Z,12.50
2022-12-17T21:19:35.845Z,11.47
2022-12-17T21:22:06.168Z,10.30
2022-12-17T21:24:37.694Z,11.30
2022-12-17T21:27:12.805Z,12.97
2022-12-17T21:29:43.848Z,19.73
2022-12-17T21:32:13.447Z,19.40
2022-12-17T21:34:44.132Z,14.33
2022-12-17T21:37:13.947Z,11.60
2022-12-17T21:39:43.291Z,12.67
2022-12-17T21:42:30.130Z,11.30
2022-12-17T21:44:59.495Z,14.73
2022-12-17T21:47:28.870Z,14.20
2022-12-17T21:49:59.594Z,14.50
2022-12-17T21:52:28.963Z,10.40
2022-12-17T21:54:58.139Z,9.30
2022-12-17T21:57:27.301Z,9.50
2022-12-17T21:59:56.558Z,9.10
2022-12-17T22:02:25.864Z,10.50
2022-12-17T22:04:55.686Z,9.00
2022-12-17T22:07:31.020Z,8.87
2022-12-17T22:10:37.618Z,9.00
2022-12-17T22:13:11.519Z,9.23
2022-12-17T22:15:43.034Z,9.43
2022-12-17T22:18:17.436Z,8.57
2022-12-17T22:20:46.559Z,9.27
2022-12-17T22:23:20.640Z,9.90
2022-12-17T22:25:50.134Z,8.93
2022-12-17T22:28:20.832Z,8.50
2022-12-17T22:31:07.637Z,8.37
2022-12-17T22:34:09.663Z,8.73
2022-12-17T22:39:33.436Z,8.57
2022-12-17T22:42:49.533Z,8.87
2022-12-17T22:44:38.824Z,9.87
2022-12-17T22:45:18.880Z,9.87
2022-12-17T22:47:48.585Z,11.80
2022-12-17T22:50:19.188Z,11.17
2022-12-17T22:52:51.338Z,9.77
2022-12-17T22:55:22.216Z,10.17
2022-12-17T22:57:51.683Z,10.40
2022-12-17T23:00:23.761Z,10.97
2022-12-17T23:02:54.265Z,11.17
2022-12-17T23:05:24.227Z,11.80
2022-12-17T23:07:53.829Z,14.17
2022-12-17T23:10:24.563Z,18.70
2022-12-17T23:12:54.480Z,11.53
2022-12-17T23:15:25.449Z,10.70
2022-12-17T23:17:55.869Z,12.13
2022-12-17T23:20:25.448Z,11.27
2022-12-17T23:22:54.846Z,13.00
2022-12-17T23:25:25.993Z,14.80
2022-12-17T23:27:55.564Z,12.90
2022-12-17T23:30:24.650Z,13.30
2022-12-17T23:32:53.936Z,10.40
2022-12-17T23:35:23.372Z,11.97
2022-12-17T23:37:52.742Z,13.70
2022-12-17T23:40:22.230Z,12.67
2022-12-17T23:42:53.063Z,13.20
2022-12-17T23:45:22.612Z,13.40
2022-12-17T23:47:51.762Z,13.13
2022-12-17T23:50:20.934Z,11.57
2022-12-17T23:52:50.153Z,12.93
2022-12-17T23:55:19.453Z,12.67
2022-12-17T23:57:48.591Z,11.77
